sensor_id;sensor_type;location;lat;lon;timestamp;P1;durP1;ratioP1;P2;durP2;ratioP2
43933;SDS011;59081;42.706;23.306;2023-09-19T00:03:28;6.20;;;3.88;;
43933;SDS011;59081;42.706;23.306;2023-09-19T00:08:31;5.60;;;3.88;;
43933;SDS011;59081;42.706;23.306;2023-09-19T00:13:33;5.93;;;4.05;;
43933;SDS011;59081;42.706;23.306;2023-09-19T00:18:36;7.63;;;4.20;;
43933;SDS011;59081;42.706;23.306;2023-09-19T00:23:38;7.60;;;4.05;;
43933;SDS011;59081;42.706;23.306;2023-09-19T00:28:40;6.53;;;4.30;;
43933;SDS011;59081;42.706;23.306;2023-09-19T00:33:41;6.03;;;4.28;;
43933;SDS011;59081;42.706;23.306;2023-09-19T00:38:42;6.90;;;3.80;;
43933;SDS011;59081;42.706;23.306;2023-09-19T00:43:44;6.72;;;5.18;;
43933;SDS011;59081;42.706;23.306;2023-09-19T00:48:45;8.73;;;4.80;;
43933;SDS011;59081;42.706;23.306;2023-09-19T00:53:46;5.95;;;4.30;;
43933;SDS011;59081;42.706;23.306;2023-09-19T00:58:47;7.97;;;4.93;;
43933;SDS011;59081;42.706;23.306;2023-09-19T01:03:48;9.85;;;4.70;;
43933;SDS011;59081;42.706;23.306;2023-09-19T01:08:50;7.07;;;5.10;;
43933;SDS011;59081;42.706;23.306;2023-09-19T01:13:55;6.95;;;4.68;;
43933;SDS011;59081;42.706;23.306;2023-09-19T01:30:24;8.35;;;4.82;;
43933;SDS011;59081;42.706;23.306;2023-09-19T01:35:29;14.02;;;5.40;;
43933;SDS011;59081;42.706;23.306;2023-09-19T01:40:30;7.00;;;4.65;;
43933;SDS011;59081;42.706;23.306;2023-09-19T01:51:02;6.28;;;4.95;;
43933;SDS011;59081;42.706;23.306;2023-09-19T01:56:07;11.07;;;5.35;;
43933;SDS011;59081;42.706;23.306;2023-09-19T02:01:14;12.80;;;5.30;;
43933;SDS011;59081;42.706;23.306;2023-09-19T02:06:18;10.65;;;5.53;;
43933;SDS011;59081;42.706;23.306;2023-09-19T02:11:19;7.05;;;5.22;;
43933;SDS011;59081;42.706;23.306;2023-09-19T02:16:20;8.35;;;5.43;;
43933;SDS011;59081;42.706;23.306;2023-09-19T02:21:20;7.38;;;5.78;;
43933;SDS011;59081;42.706;23.306;2023-09-19T02:26:21;13.73;;;6.20;;
43933;SDS011;59081;42.706;23.306;2023-09-19T02:31:24;8.70;;;5.25;;
43933;SDS011;59081;42.706;23.306;2023-09-19T02:36:25;9.15;;;5.35;;
43933;SDS011;59081;42.706;23.306;2023-09-19T02:41:26;9.75;;;5.32;;
43933;SDS011;59081;42.706;23.306;2023-09-19T02:46:29;10.65;;;5.82;;
43933;SDS011;59081;42.706;23.306;2023-09-19T02:51:30;13.98;;;7.32;;
43933;SDS011;59081;42.706;23.306;2023-09-19T02:56:31;9.75;;;5.45;;
43933;SDS011;59081;42.706;23.306;2023-09-19T03:01:32;9.95;;;6.20;;
43933;SDS011;59081;42.706;23.306;2023-09-19T03:06:34;8.48;;;6.07;;
43933;SDS011;59081;42.706;23.306;2023-09-19T03:11:34;9.95;;;5.70;;
43933;SDS011;59081;42.706;23.306;2023-09-19T03:16:35;7.25;;;5.30;;
43933;SDS011;59081;42.706;23.306;2023-09-19T03:21:38;8.40;;;6.07;;
43933;SDS011;59081;42.706;23.306;2023-09-19T03:26:38;9.95;;;5.88;;
43933;SDS011;59081;42.706;23.306;2023-09-19T03:31:39;9.75;;;5.28;;
43933;SDS011;59081;42.706;23.306;2023-09-19T03:36:40;11.30;;;5.93;;
43933;SDS011;59081;42.706;23.306;2023-09-19T03:41:41;10.50;;;5.30;;
43933;SDS011;59081;42.706;23.306;2023-09-19T03:46:42;11.10;;;6.43;;
43933;SDS011;59081;42.706;23.306;2023-09-19T03:51:42;8.27;;;5.53;;
43933;SDS011;59081;42.706;23.306;2023-09-19T03:56:43;11.63;;;5.75;;
43933;SDS011;59081;42.706;23.306;2023-09-19T04:01:45;9.70;;;5.63;;
43933;SDS011;59081;42.706;23.306;2023-09-19T04:06:46;9.02;;;6.00;;
43933;SDS011;59081;42.706;23.306;2023-09-19T04:11:47;10.50;;;5.53;;
43933;SDS011;59081;42.706;23.306;2023-09-19T04:16:50;8.15;;;6.45;;
43933;SDS011;59081;42.706;23.306;2023-09-19T04:21:50;9.15;;;6.03;;
43933;SDS011;59081;42.706;23.306;2023-09-19T04:26:50;10.57;;;6.13;;
43933;SDS011;59081;42.706;23.306;2023-09-19T04:31:52;8.55;;;6.20;;
43933;SDS011;59081;42.706;23.306;2023-09-19T04:36:53;13.40;;;6.28;;
43933;SDS011;59081;42.706;23.306;2023-09-19T04:41:53;13.77;;;7.82;;
43933;SDS011;59081;42.706;23.306;2023-09-19T04:46:54;11.73;;;7.03;;
43933;SDS011;59081;42.706;23.306;2023-09-19T04:51:55;15.40;;;6.35;;
43933;SDS011;59081;42.706;23.306;2023-09-19T04:56:56;12.75;;;6.40;;
43933;SDS011;59081;42.706;23.306;2023-09-19T05:01:56;11.82;;;5.68;;
43933;SDS011;59081;42.706;23.306;2023-09-19T05:06:57;14.20;;;6.82;;
43933;SDS011;59081;42.706;23.306;2023-09-19T05:11:58;11.38;;;5.22;;
43933;SDS011;59081;42.706;23.306;2023-09-19T05:16:58;13.43;;;5.47;;
43933;SDS011;59081;42.706;23.306;2023-09-19T05:21:59;10.80;;;5.60;;
43933;SDS011;59081;42.706;23.306;2023-09-19T05:26:59;12.38;;;6.13;;
43933;SDS011;59081;42.706;23.306;2023-09-19T05:32:00;7.80;;;5.43;;
43933;SDS011;59081;42.706;23.306;2023-09-19T05:37:01;8.20;;;5.53;;
43933;SDS011;59081;42.706;23.306;2023-09-19T05:42:02;8.18;;;5.97;;
43933;SDS011;59081;42.706;23.306;2023-09-19T05:47:04;7.50;;;5.37;;
43933;SDS011;59081;42.706;23.306;2023-09-19T05:52:07;8.98;;;5.07;;
43933;SDS011;59081;42.706;23.306;2023-09-19T05:57:08;8.13;;;5.15;;
43933;SDS011;59081;42.706;23.306;2023-09-19T06:02:12;8.95;;;5.03;;
43933;SDS011;59081;42.706;23.306;2023-09-19T06:07:12;6.30;;;4.32;;
43933;SDS011;59081;42.706;23.306;2023-09-19T06:12:13;7.40;;;5.00;;
43933;SDS011;59081;42.706;23.306;2023-09-19T06:17:17;12.23;;;5.13;;
43933;SDS011;59081;42.706;23.306;2023-09-19T06:22:19;8.55;;;4.82;;
43933;SDS011;59081;42.706;23.306;2023-09-19T06:27:20;9.55;;;4.18;;
43933;SDS011;59081;42.706;23.306;2023-09-19T06:32:28;8.63;;;5.00;;
43933;SDS011;59081;42.706;23.306;2023-09-19T06:37:29;10.68;;;4.85;;
43933;SDS011;59081;42.706;23.306;2023-09-19T06:42:30;7.90;;;4.60;;
43933;SDS011;59081;42.706;23.306;2023-09-19T06:47:30;16.20;;;6.05;;
43933;SDS011;59081;42.706;23.306;2023-09-19T06:52:32;8.43;;;4.70;;
43933;SDS011;59081;42.706;23.306;2023-09-19T06:57:35;5.65;;;4.10;;
43933;SDS011;59081;42.706;23.306;2023-09-19T07:02:36;7.03;;;3.97;;
43933;SDS011;59081;42.706;23.306;2023-09-19T07:07:36;10.50;;;4.70;;
43933;SDS011;59081;42.706;23.306;2023-09-19T07:12:37;7.30;;;4.05;;
43933;SDS011;59081;42.706;23.306;2023-09-19T07:17:38;11.20;;;4.32;;
43933;SDS011;59081;42.706;23.306;2023-09-19T07:22:38;7.32;;;3.75;;
43933;SDS011;59081;42.706;23.306;2023-09-19T07:27:40;8.07;;;4.25;;
43933;SDS011;59081;42.706;23.306;2023-09-19T07:32:41;7.97;;;4.32;;
43933;SDS011;59081;42.706;23.306;2023-09-19T07:37:41;7.60;;;4.05;;
43933;SDS011;59081;42.706;23.306;2023-09-19T07:42:42;8.50;;;4.03;;
43933;SDS011;59081;42.706;23.306;2023-09-19T07:47:47;8.35;;;4.43;;
43933;SDS011;59081;42.706;23.306;2023-09-19T07:52:49;9.50;;;4.10;;
43933;SDS011;59081;42.706;23.306;2023-09-19T07:57:53;9.88;;;4.10;;
43933;SDS011;59081;42.706;23.306;2023-09-19T08:02:54;8.90;;;4.30;;
43933;SDS011;59081;42.706;23.306;2023-09-19T08:07:54;7.90;;;5.05;;
43933;SDS011;59081;42.706;23.306;2023-09-19T08:12:56;10.98;;;5.18;;
43933;SDS011;59081;42.706;23.306;2023-09-19T08:22:59;7.47;;;5.20;;
43933;SDS011;59081;42.706;23.306;2023-09-19T08:27:59;8.80;;;4.70;;
43933;SDS011;59081;42.706;23.306;2023-09-19T08:33:01;12.35;;;5.25;;
43933;SDS011;59081;42.706;23.306;2023-09-19T08:38:05;10.52;;;4.93;;
43933;SDS011;59081;42.706;23.306;2023-09-19T08:43:06;7.70;;;5.13;;
43933;SDS011;59081;42.706;23.306;2023-09-19T08:48:23;17.80;;;5.23;;
43933;SDS011;59081;42.706;23.306;2023-09-19T08:53:50;7.20;;;4.78;;
43933;SDS011;59081;42.706;23.306;2023-09-19T08:58:57;8.25;;;4.85;;
43933;SDS011;59081;42.706;23.306;2023-09-19T09:04:02;9.60;;;5.07;;
43933;SDS011;59081;42.706;23.306;2023-09-19T09:09:03;8.57;;;4.30;;
43933;SDS011;59081;42.706;23.306;2023-09-19T09:14:05;16.47;;;4.97;;
43933;SDS011;59081;42.706;23.306;2023-09-19T09:19:07;11.88;;;5.13;;
43933;SDS011;59081;42.706;23.306;2023-09-19T09:24:29;8.77;;;4.97;;
43933;SDS011;59081;42.706;23.306;2023-09-19T09:29:46;6.80;;;4.53;;
43933;SDS011;59081;42.706;23.306;2023-09-19T09:34:54;10.52;;;5.80;;
43933;SDS011;59081;42.706;23.306;2023-09-19T09:40:00;12.10;;;5.00;;
43933;SDS011;59081;42.706;23.306;2023-09-19T09:45:20;7.25;;;4.50;;
43933;SDS011;59081;42.706;23.306;2023-09-19T09:50:50;7.38;;;4.75;;
43933;SDS011;59081;42.706;23.306;2023-09-19T09:56:01;9.38;;;5.03;;
43933;SDS011;59081;42.706;23.306;2023-09-19T10:01:06;11.00;;;4.82;;
43933;SDS011;59081;42.706;23.306;2023-09-19T10:06:11;6.07;;;4.60;;
43933;SDS011;59081;42.706;23.306;2023-09-19T10:11:24;8.00;;;4.75;;
43933;SDS011;59081;42.706;23.306;2023-09-19T10:16:30;8.70;;;4.75;;
43933;SDS011;59081;42.706;23.306;2023-09-19T10:26:34;6.70;;;3.55;;
43933;SDS011;59081;42.706;23.306;2023-09-19T10:31:36;11.70;;;4.88;;
43933;SDS011;59081;42.706;23.306;2023-09-19T10:36:44;9.55;;;4.53;;
43933;SDS011;59081;42.706;23.306;2023-09-19T10:41:47;6.57;;;4.28;;
43933;SDS011;59081;42.706;23.306;2023-09-19T10:46:54;6.90;;;4.45;;
43933;SDS011;59081;42.706;23.306;2023-09-19T10:51:55;6.83;;;4.23;;
43933;SDS011;59081;42.706;23.306;2023-09-19T10:57:00;16.63;;;4.47;;
43933;SDS011;59081;42.706;23.306;2023-09-19T11:02:17;8.30;;;4.20;;
43933;SDS011;59081;42.706;23.306;2023-09-19T11:07:18;6.75;;;4.38;;
43933;SDS011;59081;42.706;23.306;2023-09-19T11:17:29;8.77;;;4.70;;
43933;SDS011;59081;42.706;23.306;2023-09-19T11:33:18;9.27;;;4.53;;
43933;SDS011;59081;42.706;23.306;2023-09-19T11:43:44;7.00;;;4.50;;
43933;SDS011;59081;42.706;23.306;2023-09-19T11:48:47;8.73;;;4.50;;
43933;SDS011;59081;42.706;23.306;2023-09-19T11:53:50;8.45;;;4.90;;
43933;SDS011;59081;42.706;23.306;2023-09-19T11:58:52;9.18;;;4.63;;
43933;SDS011;59081;42.706;23.306;2023-09-19T12:03:55;8.50;;;4.65;;
43933;SDS011;59081;42.706;23.306;2023-09-19T12:08:58;13.93;;;5.72;;
43933;SDS011;59081;42.706;23.306;2023-09-19T12:13:59;7.70;;;5.20;;
43933;SDS011;59081;42.706;23.306;2023-09-19T12:19:19;10.77;;;4.28;;
43933;SDS011;59081;42.706;23.306;2023-09-19T12:24:22;6.22;;;4.53;;
43933;SDS011;59081;42.706;23.306;2023-09-19T12:29:22;6.70;;;4.97;;
43933;SDS011;59081;42.706;23.306;2023-09-19T12:34:23;6.63;;;4.57;;
43933;SDS011;59081;42.706;23.306;2023-09-19T12:39:28;8.57;;;4.22;;
43933;SDS011;59081;42.706;23.306;2023-09-19T12:44:29;6.55;;;3.95;;
43933;SDS011;59081;42.706;23.306;2023-09-19T12:49:30;7.28;;;4.53;;
43933;SDS011;59081;42.706;23.306;2023-09-19T12:54:38;11.40;;;5.00;;
43933;SDS011;59081;42.706;23.306;2023-09-19T12:59:43;12.63;;;4.20;;
43933;SDS011;59081;42.706;23.306;2023-09-19T13:04:51;8.55;;;4.80;;
43933;SDS011;59081;42.706;23.306;2023-09-19T13:10:03;7.28;;;4.00;;
43933;SDS011;59081;42.706;23.306;2023-09-19T13:20:23;7.55;;;4.20;;
43933;SDS011;59081;42.706;23.306;2023-09-19T13:25:27;6.95;;;3.72;;
43933;SDS011;59081;42.706;23.306;2023-09-19T13:30:33;8.32;;;4.50;;
43933;SDS011;59081;42.706;23.306;2023-09-19T13:35:42;5.90;;;4.13;;
43933;SDS011;59081;42.706;23.306;2023-09-19T13:40:43;13.63;;;5.93;;
43933;SDS011;59081;42.706;23.306;2023-09-19T13:50:44;6.57;;;4.53;;
43933;SDS011;59081;42.706;23.306;2023-09-19T13:55:45;12.77;;;4.57;;
43933;SDS011;59081;42.706;23.306;2023-09-19T14:00:46;7.38;;;4.68;;
43933;SDS011;59081;42.706;23.306;2023-09-19T14:10:48;7.53;;;4.47;;
43933;SDS011;59081;42.706;23.306;2023-09-19T14:15:48;9.07;;;4.10;;
43933;SDS011;59081;42.706;23.306;2023-09-19T14:41:36;5.40;;;4.30;;
43933;SDS011;59081;42.706;23.306;2023-09-19T14:51:37;15.83;;;5.50;;
43933;SDS011;59081;42.706;23.306;2023-09-19T14:56:42;7.43;;;4.40;;
43933;SDS011;59081;42.706;23.306;2023-09-19T15:01:43;6.60;;;5.03;;
43933;SDS011;59081;42.706;23.306;2023-09-19T15:11:45;7.63;;;5.27;;
43933;SDS011;59081;42.706;23.306;2023-09-19T15:49:14;11.65;;;6.25;;
43933;SDS011;59081;42.706;23.306;2023-09-19T15:59:25;9.40;;;6.35;;
43933;SDS011;59081;42.706;23.306;2023-09-19T16:04:26;13.27;;;6.63;;
43933;SDS011;59081;42.706;23.306;2023-09-19T16:09:27;11.75;;;6.28;;
43933;SDS011;59081;42.706;23.306;2023-09-19T16:14:28;10.93;;;6.93;;
43933;SDS011;59081;42.706;23.306;2023-09-19T16:24:36;11.32;;;6.10;;
43933;SDS011;59081;42.706;23.306;2023-09-19T16:29:37;11.77;;;6.27;;
43933;SDS011;59081;42.706;23.306;2023-09-19T16:34:38;12.70;;;6.40;;
43933;SDS011;59081;42.706;23.306;2023-09-19T16:44:55;13.73;;;7.32;;
43933;SDS011;59081;42.706;23.306;2023-09-19T18:12:34;11.55;;;8.73;;
43933;SDS011;59081;42.706;23.306;2023-09-19T18:43:27;15.27;;;9.40;;
43933;SDS011;59081;42.706;23.306;2023-09-19T18:48:29;11.95;;;6.03;;
43933;SDS011;59081;42.706;23.306;2023-09-19T18:53:32;7.68;;;5.57;;
43933;SDS011;59081;42.706;23.306;2023-09-19T18:58:36;7.85;;;5.38;;
43933;SDS011;59081;42.706;23.306;2023-09-19T19:03:37;10.02;;;5.40;;
43933;SDS011;59081;42.706;23.306;2023-09-19T19:08:40;9.30;;;5.22;;
43933;SDS011;59081;42.706;23.306;2023-09-19T19:13:45;10.82;;;6.95;;
43933;SDS011;59081;42.706;23.306;2023-09-19T19:18:52;7.88;;;5.57;;
43933;SDS011;59081;42.706;23.306;2023-09-19T19:23:58;7.82;;;5.40;;
43933;SDS011;59081;42.706;23.306;2023-09-19T19:28:59;7.45;;;5.70;;
43933;SDS011;59081;42.706;23.306;2023-09-19T19:34:07;10.35;;;6.13;;
43933;SDS011;59081;42.706;23.306;2023-09-19T19:39:10;12.73;;;5.38;;
43933;SDS011;59081;42.706;23.306;2023-09-19T19:44:15;14.10;;;4.93;;
43933;SDS011;59081;42.706;23.306;2023-09-19T19:49:16;12.32;;;4.55;;
43933;SDS011;59081;42.706;23.306;2023-09-19T19:54:23;6.82;;;5.07;;
43933;SDS011;59081;42.706;23.306;2023-09-19T19:59:24;10.73;;;4.90;;
43933;SDS011;59081;42.706;23.306;2023-09-19T20:04:25;9.52;;;5.85;;
43933;SDS011;59081;42.706;23.306;2023-09-19T20:09:27;10.45;;;5.25;;
43933;SDS011;59081;42.706;23.306;2023-09-19T20:14:30;16.40;;;6.25;;
43933;SDS011;59081;42.706;23.306;2023-09-19T20:19:36;18.02;;;7.82;;
43933;SDS011;59081;42.706;23.306;2023-09-19T20:24:37;21.13;;;9.68;;
43933;SDS011;59081;42.706;23.306;2023-09-19T20:29:45;12.93;;;8.18;;
43933;SDS011;59081;42.706;23.306;2023-09-19T20:34:57;9.88;;;7.88;;
43933;SDS011;59081;42.706;23.306;2023-09-19T20:40:00;10.93;;;6.93;;
43933;SDS011;59081;42.706;23.306;2023-09-19T20:45:05;11.75;;;6.35;;
43933;SDS011;59081;42.706;23.306;2023-09-19T20:50:07;11.23;;;5.28;;
43933;SDS011;59081;42.706;23.306;2023-09-19T20:55:08;8.43;;;5.80;;
43933;SDS011;59081;42.706;23.306;2023-09-19T21:00:10;11.30;;;4.78;;
43933;SDS011;59081;42.706;23.306;2023-09-19T21:05:11;9.53;;;5.27;;
43933;SDS011;59081;42.706;23.306;2023-09-19T21:10:12;11.23;;;5.68;;
43933;SDS011;59081;42.706;23.306;2023-09-19T21:15:14;13.98;;;7.57;;
43933;SDS011;59081;42.706;23.306;2023-09-19T21:20:17;11.48;;;6.97;;
43933;SDS011;59081;42.706;23.306;2023-09-19T21:25:22;11.73;;;4.50;;
43933;SDS011;59081;42.706;23.306;2023-09-19T21:30:22;8.25;;;5.10;;
43933;SDS011;59081;42.706;23.306;2023-09-19T21:35:23;7.85;;;5.18;;
43933;SDS011;59081;42.706;23.306;2023-09-19T21:40:24;6.45;;;4.45;;
43933;SDS011;59081;42.706;23.306;2023-09-19T21:45:24;8.88;;;5.18;;
43933;SDS011;59081;42.706;23.306;2023-09-19T21:50:25;9.27;;;5.40;;
43933;SDS011;59081;42.706;23.306;2023-09-19T21:55:26;6.90;;;5.60;;
43933;SDS011;59081;42.706;23.306;2023-09-19T22:00:27;7.00;;;4.97;;
43933;SDS011;59081;42.706;23.306;2023-09-19T22:05:34;8.23;;;5.40;;
43933;SDS011;59081;42.706;23.306;2023-09-19T22:10:42;8.80;;;5.97;;
43933;SDS011;59081;42.706;23.306;2023-09-19T22:15:44;9.18;;;5.78;;
43933;SDS011;59081;42.706;23.306;2023-09-19T22:20:45;9.80;;;5.05;;
43933;SDS011;59081;42.706;23.306;2023-09-19T22:25:46;8.45;;;5.25;;
43933;SDS011;59081;42.706;23.306;2023-09-19T22:30:47;8.00;;;4.05;;
43933;SDS011;59081;42.706;23.306;2023-09-19T22:35:51;7.95;;;4.53;;
43933;SDS011;59081;42.706;23.306;2023-09-19T22:40:51;7.15;;;3.83;;
43933;SDS011;59081;42.706;23.306;2023-09-19T22:45:55;7.50;;;4.35;;
43933;SDS011;59081;42.706;23.306;2023-09-19T22:50:55;5.88;;;3.10;;
43933;SDS011;59081;42.706;23.306;2023-09-19T22:56:03;4.72;;;3.30;;
43933;SDS011;59081;42.706;23.306;2023-09-19T23:01:11;8.77;;;3.72;;
43933;SDS011;59081;42.706;23.306;2023-09-19T23:06:27;4.50;;;3.38;;
43933;SDS011;59081;42.706;23.306;2023-09-19T23:11:29;6.95;;;3.75;;
43933;SDS011;59081;42.706;23.306;2023-09-19T23:16:32;6.25;;;3.25;;
43933;SDS011;59081;42.706;23.306;2023-09-19T23:21:36;10.55;;;4.25;;
43933;SDS011;59081;42.706;23.306;2023-09-19T23:26:44;4.78;;;3.83;;
43933;SDS011;59081;42.706;23.306;2023-09-19T23:31:45;6.53;;;4.00;;
43933;SDS011;59081;42.706;23.306;2023-09-19T23:36:46;8.63;;;4.40;;
43933;SDS011;59081;42.706;23.306;2023-09-19T23:41:46;5.20;;;3.75;;
43933;SDS011;59081;42.706;23.306;2023-09-19T23:46:47;8.18;;;4.43;;
43933;SDS011;59081;42.706;23.306;2023-09-19T23:51:55;9.48;;;4.32;;
43933;SDS011;59081;42.706;23.306;2023-09-19T23:56:56;9.40;;;5.57;;
